sensor_id;sensor_type;location;lat;lon;timestamp;P1;durP1;ratioP1;P2;durP2;ratioP2
73680;SDS011;61979;53.536;8.082;2022-08-03T00:00:52;7.43;;;6.07;;
73680;SDS011;61979;53.536;8.082;2022-08-03T00:01:52;6.30;;;5.25;;
73680;SDS011;61979;53.536;8.082;2022-08-03T00:02:53;7.85;;;6.95;;
73680;SDS011;61979;53.536;8.082;2022-08-03T00:03:53;7.28;;;5.40;;
73680;SDS011;61979;53.536;8.082;2022-08-03T00:04:54;11.00;;;6.20;;
73680;SDS011;61979;53.536;8.082;2022-08-03T00:05:54;8.82;;;5.47;;
73680;SDS011;61979;53.536;8.082;2022-08-03T00:06:54;8.18;;;5.45;;
73680;SDS011;61979;53.536;8.082;2022-08-03T00:07:55;7.18;;;5.50;;
73680;SDS011;61979;53.536;8.082;2022-08-03T00:08:55;8.93;;;5.50;;
73680;SDS011;61979;53.536;8.082;2022-08-03T00:09:56;6.72;;;5.07;;
73680;SDS011;61979;53.536;8.082;2022-08-03T00:10:56;6.28;;;5.15;;
73680;SDS011;61979;53.536;8.082;2022-08-03T00:11:57;9.15;;;6.22;;
73680;SDS011;61979;53.536;8.082;2022-08-03T00:12:57;7.03;;;5.10;;
73680;SDS011;61979;53.536;8.082;2022-08-03T00:13:58;7.43;;;5.97;;
73680;SDS011;61979;53.536;8.082;2022-08-03T00:14:58;9.90;;;5.85;;
73680;SDS011;61979;53.536;8.082;2022-08-03T00:15:58;8.38;;;5.72;;
73680;SDS011;61979;53.536;8.082;2022-08-03T00:16:59;7.13;;;5.80;;
73680;SDS011;61979;53.536;8.082;2022-08-03T00:17:59;7.20;;;5.82;;
73680;SDS011;61979;53.536;8.082;2022-08-03T00:19:00;6.60;;;5.82;;
73680;SDS011;61979;53.536;8.082;2022-08-03T00:20:00;8.05;;;6.50;;
73680;SDS011;61979;53.536;8.082;2022-08-03T00:21:01;7.15;;;6.43;;
73680;SDS011;61979;53.536;8.082;2022-08-03T00:22:02;9.35;;;6.55;;
73680;SDS011;61979;53.536;8.082;2022-08-03T00:23:03;6.53;;;5.38;;
73680;SDS011;61979;53.536;8.082;2022-08-03T00:24:04;7.07;;;5.70;;
73680;SDS011;61979;53.536;8.082;2022-08-03T00:25:05;7.03;;;5.70;;
73680;SDS011;61979;53.536;8.082;2022-08-03T00:26:05;8.30;;;5.53;;
73680;SDS011;61979;53.536;8.082;2022-08-03T00:27:06;8.15;;;6.35;;
73680;SDS011;61979;53.536;8.082;2022-08-03T00:28:06;7.70;;;5.15;;
73680;SDS011;61979;53.536;8.082;2022-08-03T00:29:07;11.45;;;7.00;;
73680;SDS011;61979;53.536;8.082;2022-08-03T00:30:07;6.90;;;5.47;;
73680;SDS011;61979;53.536;8.082;2022-08-03T00:31:08;9.13;;;6.20;;
73680;SDS011;61979;53.536;8.082;2022-08-03T00:32:08;8.93;;;5.88;;
73680;SDS011;61979;53.536;8.082;2022-08-03T00:33:09;9.43;;;6.57;;
73680;SDS011;61979;53.536;8.082;2022-08-03T00:34:09;10.00;;;6.70;;
73680;SDS011;61979;53.536;8.082;2022-08-03T00:35:10;9.18;;;5.50;;
73680;SDS011;61979;53.536;8.082;2022-08-03T00:36:10;11.50;;;6.50;;
73680;SDS011;61979;53.536;8.082;2022-08-03T00:37:11;7.18;;;6.05;;
73680;SDS011;61979;53.536;8.082;2022-08-03T00:38:11;9.82;;;6.43;;
73680;SDS011;61979;53.536;8.082;2022-08-03T00:39:12;7.80;;;6.07;;
73680;SDS011;61979;53.536;8.082;2022-08-03T00:40:13;10.95;;;6.72;;
73680;SDS011;61979;53.536;8.082;2022-08-03T00:41:14;10.30;;;7.53;;
73680;SDS011;61979;53.536;8.082;2022-08-03T00:42:15;11.68;;;7.40;;
73680;SDS011;61979;53.536;8.082;2022-08-03T00:43:15;11.05;;;6.75;;
73680;SDS011;61979;53.536;8.082;2022-08-03T00:44:16;10.52;;;7.53;;
73680;SDS011;61979;53.536;8.082;2022-08-03T00:45:17;10.55;;;7.80;;
73680;SDS011;61979;53.536;8.082;2022-08-03T00:46:17;12.55;;;8.35;;
73680;SDS011;61979;53.536;8.082;2022-08-03T00:47:19;10.55;;;8.00;;
73680;SDS011;61979;53.536;8.082;2022-08-03T00:48:19;8.25;;;7.40;;
73680;SDS011;61979;53.536;8.082;2022-08-03T00:49:20;10.15;;;7.82;;
73680;SDS011;61979;53.536;8.082;2022-08-03T00:50:21;10.15;;;8.13;;
73680;SDS011;61979;53.536;8.082;2022-08-03T00:51:23;8.35;;;7.30;;
73680;SDS011;61979;53.536;8.082;2022-08-03T00:52:24;9.77;;;8.43;;
73680;SDS011;61979;53.536;8.082;2022-08-03T00:53:24;9.57;;;8.63;;
73680;SDS011;61979;53.536;8.082;2022-08-03T00:54:26;9.70;;;7.40;;
73680;SDS011;61979;53.536;8.082;2022-08-03T00:55:27;11.30;;;7.50;;
73680;SDS011;61979;53.536;8.082;2022-08-03T00:56:28;10.60;;;7.43;;
73680;SDS011;61979;53.536;8.082;2022-08-03T00:57:29;8.70;;;7.35;;
73680;SDS011;61979;53.536;8.082;2022-08-03T00:58:30;8.25;;;7.10;;
73680;SDS011;61979;53.536;8.082;2022-08-03T00:59:31;9.63;;;7.45;;
73680;SDS011;61979;53.536;8.082;2022-08-03T01:00:32;10.13;;;7.70;;
73680;SDS011;61979;53.536;8.082;2022-08-03T01:01:35;10.70;;;7.85;;
73680;SDS011;61979;53.536;8.082;2022-08-03T01:02:36;10.43;;;8.10;;
73680;SDS011;61979;53.536;8.082;2022-08-03T01:03:38;8.38;;;6.85;;
73680;SDS011;61979;53.536;8.082;2022-08-03T01:04:38;15.05;;;7.57;;
73680;SDS011;61979;53.536;8.082;2022-08-03T01:06:59;10.85;;;8.23;;
73680;SDS011;61979;53.536;8.082;2022-08-03T01:08:15;11.80;;;7.22;;
73680;SDS011;61979;53.536;8.082;2022-08-03T01:11:48;10.43;;;8.40;;
73680;SDS011;61979;53.536;8.082;2022-08-03T01:16:25;10.38;;;7.68;;
73680;SDS011;61979;53.536;8.082;2022-08-03T01:17:32;12.82;;;8.07;;
73680;SDS011;61979;53.536;8.082;2022-08-03T01:20:42;12.68;;;8.15;;
73680;SDS011;61979;53.536;8.082;2022-08-03T01:23:33;7.82;;;6.65;;
73680;SDS011;61979;53.536;8.082;2022-08-03T01:26:39;16.20;;;8.02;;
73680;SDS011;61979;53.536;8.082;2022-08-03T01:30:09;12.43;;;7.50;;
73680;SDS011;61979;53.536;8.082;2022-08-03T01:31:11;9.02;;;7.00;;
73680;SDS011;61979;53.536;8.082;2022-08-03T01:32:15;13.07;;;8.32;;
73680;SDS011;61979;53.536;8.082;2022-08-03T01:33:20;13.50;;;7.57;;
73680;SDS011;61979;53.536;8.082;2022-08-03T01:34:24;13.45;;;8.25;;
73680;SDS011;61979;53.536;8.082;2022-08-03T01:35:46;9.90;;;7.72;;
73680;SDS011;61979;53.536;8.082;2022-08-03T01:36:53;10.23;;;8.60;;
73680;SDS011;61979;53.536;8.082;2022-08-03T01:38:02;11.77;;;8.43;;
73680;SDS011;61979;53.536;8.082;2022-08-03T01:39:05;14.32;;;8.43;;
73680;SDS011;61979;53.536;8.082;2022-08-03T01:40:08;9.77;;;7.68;;
73680;SDS011;61979;53.536;8.082;2022-08-03T01:41:11;12.57;;;8.18;;
73680;SDS011;61979;53.536;8.082;2022-08-03T01:42:16;13.55;;;9.25;;
73680;SDS011;61979;53.536;8.082;2022-08-03T01:43:18;12.52;;;8.32;;
73680;SDS011;61979;53.536;8.082;2022-08-03T01:44:22;12.73;;;8.00;;
73680;SDS011;61979;53.536;8.082;2022-08-03T01:45:24;13.05;;;8.38;;
73680;SDS011;61979;53.536;8.082;2022-08-03T01:46:27;8.75;;;6.15;;
73680;SDS011;61979;53.536;8.082;2022-08-03T01:47:30;11.05;;;8.00;;
73680;SDS011;61979;53.536;8.082;2022-08-03T01:48:32;10.50;;;7.65;;
73680;SDS011;61979;53.536;8.082;2022-08-03T01:49:38;11.77;;;7.60;;
73680;SDS011;61979;53.536;8.082;2022-08-03T01:50:42;14.40;;;7.35;;
73680;SDS011;61979;53.536;8.082;2022-08-03T01:51:44;9.68;;;7.53;;
73680;SDS011;61979;53.536;8.082;2022-08-03T01:52:47;10.70;;;7.10;;
73680;SDS011;61979;53.536;8.082;2022-08-03T01:53:49;10.48;;;6.90;;
73680;SDS011;61979;53.536;8.082;2022-08-03T01:54:53;11.30;;;8.10;;
73680;SDS011;61979;53.536;8.082;2022-08-03T01:55:55;12.93;;;7.60;;
73680;SDS011;61979;53.536;8.082;2022-08-03T01:56:57;11.13;;;7.07;;
73680;SDS011;61979;53.536;8.082;2022-08-03T01:57:58;11.52;;;7.47;;
73680;SDS011;61979;53.536;8.082;2022-08-03T01:59:02;12.65;;;7.32;;
73680;SDS011;61979;53.536;8.082;2022-08-03T02:00:06;10.98;;;7.10;;
73680;SDS011;61979;53.536;8.082;2022-08-03T02:01:09;10.73;;;7.90;;
73680;SDS011;61979;53.536;8.082;2022-08-03T02:02:12;12.80;;;7.68;;
73680;SDS011;61979;53.536;8.082;2022-08-03T02:03:15;12.82;;;7.45;;
73680;SDS011;61979;53.536;8.082;2022-08-03T02:04:16;8.60;;;6.55;;
73680;SDS011;61979;53.536;8.082;2022-08-03T02:05:18;13.02;;;6.80;;
73680;SDS011;61979;53.536;8.082;2022-08-03T02:06:19;9.80;;;6.57;;
73680;SDS011;61979;53.536;8.082;2022-08-03T02:07:21;10.57;;;6.57;;
73680;SDS011;61979;53.536;8.082;2022-08-03T02:08:24;10.48;;;6.88;;
73680;SDS011;61979;53.536;8.082;2022-08-03T02:09:26;8.70;;;6.95;;
73680;SDS011;61979;53.536;8.082;2022-08-03T02:10:29;10.02;;;6.97;;
73680;SDS011;61979;53.536;8.082;2022-08-03T02:11:31;13.18;;;7.60;;
73680;SDS011;61979;53.536;8.082;2022-08-03T02:12:34;15.23;;;7.53;;
73680;SDS011;61979;53.536;8.082;2022-08-03T02:13:36;7.15;;;6.30;;
73680;SDS011;61979;53.536;8.082;2022-08-03T02:14:38;12.32;;;5.88;;
73680;SDS011;61979;53.536;8.082;2022-08-03T02:15:40;9.73;;;6.43;;
73680;SDS011;61979;53.536;8.082;2022-08-03T02:16:42;9.32;;;6.03;;
73680;SDS011;61979;53.536;8.082;2022-08-03T02:17:45;10.05;;;5.80;;
73680;SDS011;61979;53.536;8.082;2022-08-03T02:18:46;10.48;;;7.05;;
73680;SDS011;61979;53.536;8.082;2022-08-03T02:19:47;8.23;;;6.40;;
73680;SDS011;61979;53.536;8.082;2022-08-03T02:20:49;9.88;;;6.38;;
73680;SDS011;61979;53.536;8.082;2022-08-03T02:21:51;12.30;;;7.13;;
73680;SDS011;61979;53.536;8.082;2022-08-03T02:22:52;11.20;;;6.25;;
73680;SDS011;61979;53.536;8.082;2022-08-03T02:23:53;11.02;;;6.55;;
73680;SDS011;61979;53.536;8.082;2022-08-03T02:24:53;12.05;;;6.45;;
73680;SDS011;61979;53.536;8.082;2022-08-03T02:25:56;9.57;;;6.03;;
73680;SDS011;61979;53.536;8.082;2022-08-03T02:26:59;10.48;;;6.07;;
73680;SDS011;61979;53.536;8.082;2022-08-03T02:28:05;12.05;;;6.35;;
73680;SDS011;61979;53.536;8.082;2022-08-03T02:29:19;11.98;;;6.00;;
73680;SDS011;61979;53.536;8.082;2022-08-03T02:30:28;11.15;;;6.20;;
73680;SDS011;61979;53.536;8.082;2022-08-03T02:31:32;9.32;;;6.10;;
73680;SDS011;61979;53.536;8.082;2022-08-03T02:32:36;9.07;;;5.15;;
73680;SDS011;61979;53.536;8.082;2022-08-03T02:33:43;9.05;;;6.28;;
73680;SDS011;61979;53.536;8.082;2022-08-03T02:34:49;8.85;;;5.03;;
73680;SDS011;61979;53.536;8.082;2022-08-03T02:35:52;11.18;;;5.45;;
73680;SDS011;61979;53.536;8.082;2022-08-03T02:36:53;8.50;;;6.25;;
73680;SDS011;61979;53.536;8.082;2022-08-03T02:38:02;12.95;;;6.65;;
73680;SDS011;61979;53.536;8.082;2022-08-03T02:39:09;9.52;;;6.13;;
73680;SDS011;61979;53.536;8.082;2022-08-03T02:40:10;12.30;;;6.35;;
73680;SDS011;61979;53.536;8.082;2022-08-03T02:41:15;11.93;;;5.75;;
73680;SDS011;61979;53.536;8.082;2022-08-03T02:42:20;5.78;;;4.95;;
73680;SDS011;61979;53.536;8.082;2022-08-03T02:43:22;14.10;;;6.50;;
73680;SDS011;61979;53.536;8.082;2022-08-03T02:44:24;12.73;;;6.25;;
73680;SDS011;61979;53.536;8.082;2022-08-03T02:45:26;11.50;;;5.88;;
73680;SDS011;61979;53.536;8.082;2022-08-03T02:46:32;13.82;;;5.90;;
73680;SDS011;61979;53.536;8.082;2022-08-03T02:47:36;8.77;;;5.85;;
73680;SDS011;61979;53.536;8.082;2022-08-03T02:48:40;9.10;;;5.60;;
73680;SDS011;61979;53.536;8.082;2022-08-03T02:49:41;9.48;;;5.50;;
73680;SDS011;61979;53.536;8.082;2022-08-03T02:50:45;11.82;;;6.50;;
73680;SDS011;61979;53.536;8.082;2022-08-03T02:51:47;10.45;;;5.97;;
73680;SDS011;61979;53.536;8.082;2022-08-03T02:52:51;10.40;;;5.82;;
73680;SDS011;61979;53.536;8.082;2022-08-03T02:53:53;10.82;;;5.78;;
73680;SDS011;61979;53.536;8.082;2022-08-03T02:54:58;10.23;;;5.50;;
73680;SDS011;61979;53.536;8.082;2022-08-03T02:55:59;8.68;;;5.55;;
73680;SDS011;61979;53.536;8.082;2022-08-03T02:57:02;14.13;;;6.63;;
73680;SDS011;61979;53.536;8.082;2022-08-03T02:58:06;12.45;;;5.43;;
73680;SDS011;61979;53.536;8.082;2022-08-03T02:59:09;8.07;;;5.40;;
73680;SDS011;61979;53.536;8.082;2022-08-03T03:00:11;9.45;;;5.30;;
73680;SDS011;61979;53.536;8.082;2022-08-03T03:01:12;8.23;;;5.15;;
73680;SDS011;61979;53.536;8.082;2022-08-03T03:02:14;11.38;;;5.45;;
73680;SDS011;61979;53.536;8.082;2022-08-03T03:03:16;10.48;;;5.43;;
73680;SDS011;61979;53.536;8.082;2022-08-03T03:04:18;11.38;;;5.40;;
73680;SDS011;61979;53.536;8.082;2022-08-03T03:05:19;9.18;;;5.32;;
73680;SDS011;61979;53.536;8.082;2022-08-03T03:06:20;8.90;;;5.32;;
73680;SDS011;61979;53.536;8.082;2022-08-03T03:07:21;11.18;;;5.60;;
73680;SDS011;61979;53.536;8.082;2022-08-03T03:08:22;8.77;;;5.13;;
73680;SDS011;61979;53.536;8.082;2022-08-03T03:09:24;8.82;;;5.47;;
73680;SDS011;61979;53.536;8.082;2022-08-03T03:10:25;7.07;;;4.43;;
73680;SDS011;61979;53.536;8.082;2022-08-03T03:11:26;9.18;;;5.30;;
73680;SDS011;61979;53.536;8.082;2022-08-03T03:12:30;9.77;;;5.35;;
73680;SDS011;61979;53.536;8.082;2022-08-03T03:13:32;11.40;;;5.40;;
73680;SDS011;61979;53.536;8.082;2022-08-03T03:14:33;10.93;;;4.75;;
73680;SDS011;61979;53.536;8.082;2022-08-03T03:15:35;9.73;;;5.28;;
73680;SDS011;61979;53.536;8.082;2022-08-03T03:16:38;10.68;;;5.25;;
73680;SDS011;61979;53.536;8.082;2022-08-03T03:17:40;10.10;;;4.78;;
73680;SDS011;61979;53.536;8.082;2022-08-03T03:18:46;8.48;;;4.90;;
73680;SDS011;61979;53.536;8.082;2022-08-03T03:19:48;9.00;;;5.60;;
73680;SDS011;61979;53.536;8.082;2022-08-03T03:20:50;12.95;;;5.00;;
73680;SDS011;61979;53.536;8.082;2022-08-03T03:21:52;11.50;;;5.53;;
73680;SDS011;61979;53.536;8.082;2022-08-03T03:22:55;6.45;;;4.65;;
73680;SDS011;61979;53.536;8.082;2022-08-03T03:23:58;6.65;;;4.60;;
73680;SDS011;61979;53.536;8.082;2022-08-03T03:25:00;9.90;;;5.13;;
73680;SDS011;61979;53.536;8.082;2022-08-03T03:26:01;9.27;;;5.30;;
73680;SDS011;61979;53.536;8.082;2022-08-03T03:27:02;7.97;;;4.70;;
73680;SDS011;61979;53.536;8.082;2022-08-03T03:28:04;8.52;;;4.88;;
73680;SDS011;61979;53.536;8.082;2022-08-03T03:29:05;8.57;;;5.13;;
73680;SDS011;61979;53.536;8.082;2022-08-03T03:30:06;7.72;;;5.30;;
73680;SDS011;61979;53.536;8.082;2022-08-03T03:31:07;10.02;;;5.18;;
73680;SDS011;61979;53.536;8.082;2022-08-03T03:32:08;7.90;;;5.20;;
73680;SDS011;61979;53.536;8.082;2022-08-03T03:33:09;8.98;;;4.50;;
73680;SDS011;61979;53.536;8.082;2022-08-03T03:34:09;9.93;;;5.22;;
73680;SDS011;61979;53.536;8.082;2022-08-03T03:35:11;12.00;;;4.97;;
73680;SDS011;61979;53.536;8.082;2022-08-03T03:36:13;8.93;;;5.30;;
73680;SDS011;61979;53.536;8.082;2022-08-03T03:37:14;9.05;;;4.35;;
73680;SDS011;61979;53.536;8.082;2022-08-03T03:38:14;11.07;;;5.25;;
73680;SDS011;61979;53.536;8.082;2022-08-03T03:39:14;7.72;;;5.30;;
73680;SDS011;61979;53.536;8.082;2022-08-03T03:40:15;10.68;;;5.22;;
73680;SDS011;61979;53.536;8.082;2022-08-03T03:41:15;8.73;;;5.22;;
73680;SDS011;61979;53.536;8.082;2022-08-03T03:42:16;10.68;;;5.63;;
73680;SDS011;61979;53.536;8.082;2022-08-03T03:43:16;8.85;;;5.15;;
73680;SDS011;61979;53.536;8.082;2022-08-03T03:44:17;8.18;;;4.90;;
73680;SDS011;61979;53.536;8.082;2022-08-03T03:45:18;9.45;;;5.30;;
73680;SDS011;61979;53.536;8.082;2022-08-03T03:46:19;10.48;;;5.63;;
73680;SDS011;61979;53.536;8.082;2022-08-03T03:47:20;9.45;;;4.57;;
73680;SDS011;61979;53.536;8.082;2022-08-03T03:48:20;11.63;;;5.80;;
73680;SDS011;61979;53.536;8.082;2022-08-03T03:49:21;9.23;;;4.88;;
73680;SDS011;61979;53.536;8.082;2022-08-03T03:50:21;9.68;;;5.10;;
73680;SDS011;61979;53.536;8.082;2022-08-03T03:51:22;14.23;;;5.63;;
73680;SDS011;61979;53.536;8.082;2022-08-03T03:52:23;8.60;;;5.00;;
73680;SDS011;61979;53.536;8.082;2022-08-03T03:53:23;10.80;;;5.20;;
73680;SDS011;61979;53.536;8.082;2022-08-03T03:54:24;9.02;;;5.15;;
73680;SDS011;61979;53.536;8.082;2022-08-03T03:55:24;11.13;;;5.50;;
73680;SDS011;61979;53.536;8.082;2022-08-03T03:56:25;9.27;;;5.30;;
73680;SDS011;61979;53.536;8.082;2022-08-03T03:57:26;16.75;;;6.15;;
73680;SDS011;61979;53.536;8.082;2022-08-03T03:58:27;10.82;;;6.20;;
73680;SDS011;61979;53.536;8.082;2022-08-03T03:59:27;16.55;;;6.10;;
73680;SDS011;61979;53.536;8.082;2022-08-03T04:00:27;14.43;;;6.50;;
73680;SDS011;61979;53.536;8.082;2022-08-03T04:01:28;10.93;;;5.45;;
73680;SDS011;61979;53.536;8.082;2022-08-03T04:02:30;11.85;;;6.38;;
73680;SDS011;61979;53.536;8.082;2022-08-03T04:03:30;12.43;;;6.03;;
73680;SDS011;61979;53.536;8.082;2022-08-03T04:04:31;11.80;;;5.80;;
73680;SDS011;61979;53.536;8.082;2022-08-03T04:06:04;13.23;;;5.82;;
73680;SDS011;61979;53.536;8.082;2022-08-03T04:07:24;8.50;;;4.53;;
73680;SDS011;61979;53.536;8.082;2022-08-03T04:08:44;13.60;;;5.68;;
73680;SDS011;61979;53.536;8.082;2022-08-03T04:10:04;9.38;;;5.53;;
73680;SDS011;61979;53.536;8.082;2022-08-03T04:11:33;12.20;;;5.80;;
73680;SDS011;61979;53.536;8.082;2022-08-03T04:12:38;13.90;;;6.20;;
73680;SDS011;61979;53.536;8.082;2022-08-03T04:13:41;11.13;;;6.00;;
73680;SDS011;61979;53.536;8.082;2022-08-03T04:14:46;9.07;;;5.38;;
73680;SDS011;61979;53.536;8.082;2022-08-03T04:15:47;10.70;;;5.80;;
73680;SDS011;61979;53.536;8.082;2022-08-03T04:16:50;13.50;;;5.97;;
73680;SDS011;61979;53.536;8.082;2022-08-03T04:17:55;10.57;;;6.03;;
73680;SDS011;61979;53.536;8.082;2022-08-03T04:18:59;10.43;;;5.28;;
73680;SDS011;61979;53.536;8.082;2022-08-03T04:20:04;8.57;;;6.28;;
73680;SDS011;61979;53.536;8.082;2022-08-03T04:21:07;9.25;;;6.03;;
73680;SDS011;61979;53.536;8.082;2022-08-03T04:22:11;8.70;;;6.10;;
73680;SDS011;61979;53.536;8.082;2022-08-03T04:23:15;10.18;;;5.75;;
73680;SDS011;61979;53.536;8.082;2022-08-03T04:24:18;11.35;;;6.32;;
73680;SDS011;61979;53.536;8.082;2022-08-03T04:25:22;9.98;;;6.57;;
73680;SDS011;61979;53.536;8.082;2022-08-03T04:26:30;14.02;;;7.03;;
73680;SDS011;61979;53.536;8.082;2022-08-03T04:27:34;12.68;;;7.28;;
73680;SDS011;61979;53.536;8.082;2022-08-03T04:28:38;11.05;;;6.78;;
73680;SDS011;61979;53.536;8.082;2022-08-03T04:29:45;13.52;;;6.68;;
73680;SDS011;61979;53.536;8.082;2022-08-03T04:30:47;15.13;;;6.70;;
73680;SDS011;61979;53.536;8.082;2022-08-03T04:31:49;10.32;;;7.03;;
73680;SDS011;61979;53.536;8.082;2022-08-03T04:32:54;10.93;;;6.85;;
73680;SDS011;61979;53.536;8.082;2022-08-03T04:33:56;10.05;;;6.72;;
73680;SDS011;61979;53.536;8.082;2022-08-03T04:34:57;11.57;;;7.75;;
73680;SDS011;61979;53.536;8.082;2022-08-03T04:35:58;8.57;;;6.50;;
73680;SDS011;61979;53.536;8.082;2022-08-03T04:37:01;11.02;;;7.30;;
73680;SDS011;61979;53.536;8.082;2022-08-03T04:38:06;11.18;;;6.97;;
73680;SDS011;61979;53.536;8.082;2022-08-03T04:39:10;11.20;;;7.80;;
73680;SDS011;61979;53.536;8.082;2022-08-03T04:40:19;32.28;;;22.50;;
73680;SDS011;61979;53.536;8.082;2022-08-03T04:41:24;26.42;;;20.95;;
73680;SDS011;61979;53.536;8.082;2022-08-03T04:42:26;22.45;;;17.20;;
73680;SDS011;61979;53.536;8.082;2022-08-03T04:43:27;47.55;;;34.92;;
73680;SDS011;61979;53.536;8.082;2022-08-03T04:44:30;15.52;;;9.00;;
73680;SDS011;61979;53.536;8.082;2022-08-03T04:45:36;10.05;;;8.05;;
73680;SDS011;61979;53.536;8.082;2022-08-03T04:46:37;13.35;;;8.35;;
73680;SDS011;61979;53.536;8.082;2022-08-03T04:47:39;11.70;;;8.30;;
73680;SDS011;61979;53.536;8.082;2022-08-03T04:48:40;11.38;;;8.55;;
73680;SDS011;61979;53.536;8.082;2022-08-03T04:49:41;10.65;;;8.32;;
73680;SDS011;61979;53.536;8.082;2022-08-03T04:50:42;12.88;;;8.95;;
73680;SDS011;61979;53.536;8.082;2022-08-03T04:51:43;14.57;;;8.73;;
73680;SDS011;61979;53.536;8.082;2022-08-03T04:52:44;13.93;;;8.73;;
73680;SDS011;61979;53.536;8.082;2022-08-03T04:53:44;11.52;;;8.45;;
73680;SDS011;61979;53.536;8.082;2022-08-03T04:54:44;16.23;;;8.98;;
73680;SDS011;61979;53.536;8.082;2022-08-03T04:55:45;11.65;;;8.32;;
73680;SDS011;61979;53.536;8.082;2022-08-03T04:56:45;13.55;;;8.40;;
73680;SDS011;61979;53.536;8.082;2022-08-03T04:57:46;16.55;;;8.50;;
73680;SDS011;61979;53.536;8.082;2022-08-03T04:58:46;14.15;;;8.88;;
73680;SDS011;61979;53.536;8.082;2022-08-03T04:59:47;13.35;;;8.98;;
73680;SDS011;61979;53.536;8.082;2022-08-03T05:00:51;15.82;;;8.50;;
73680;SDS011;61979;53.536;8.082;2022-08-03T05:01:51;13.98;;;9.40;;
73680;SDS011;61979;53.536;8.082;2022-08-03T05:02:52;15.52;;;10.60;;
73680;SDS011;61979;53.536;8.082;2022-08-03T05:03:53;31.73;;;24.65;;
73680;SDS011;61979;53.536;8.082;2022-08-03T05:04:53;44.55;;;29.45;;
73680;SDS011;61979;53.536;8.082;2022-08-03T05:05:54;18.13;;;11.75;;
73680;SDS011;61979;53.536;8.082;2022-08-03T05:06:54;18.02;;;9.40;;
73680;SDS011;61979;53.536;8.082;2022-08-03T05:07:55;15.20;;;8.23;;
73680;SDS011;61979;53.536;8.082;2022-08-03T05:08:55;16.90;;;8.15;;
73680;SDS011;61979;53.536;8.082;2022-08-03T05:09:55;12.32;;;7.88;;
73680;SDS011;61979;53.536;8.082;2022-08-03T05:10:56;14.75;;;8.32;;
73680;SDS011;61979;53.536;8.082;2022-08-03T05:11:57;13.30;;;7.88;;
73680;SDS011;61979;53.536;8.082;2022-08-03T05:12:57;11.85;;;7.97;;
73680;SDS011;61979;53.536;8.082;2022-08-03T05:13:57;12.25;;;8.07;;
73680;SDS011;61979;53.536;8.082;2022-08-03T05:14:58;13.30;;;7.93;;
73680;SDS011;61979;53.536;8.082;2022-08-03T05:15:58;11.73;;;7.38;;
73680;SDS011;61979;53.536;8.082;2022-08-03T05:16:58;17.13;;;7.45;;
73680;SDS011;61979;53.536;8.082;2022-08-03T05:17:59;12.80;;;7.07;;
73680;SDS011;61979;53.536;8.082;2022-08-03T05:18:59;14.30;;;7.47;;
73680;SDS011;61979;53.536;8.082;2022-08-03T05:19:59;15.82;;;8.18;;
73680;SDS011;61979;53.536;8.082;2022-08-03T05:21:00;17.27;;;7.30;;
73680;SDS011;61979;53.536;8.082;2022-08-03T05:22:00;12.25;;;7.38;;
73680;SDS011;61979;53.536;8.082;2022-08-03T05:23:02;10.05;;;6.78;;
73680;SDS011;61979;53.536;8.082;2022-08-03T05:24:03;10.63;;;6.90;;
73680;SDS011;61979;53.536;8.082;2022-08-03T05:25:03;11.95;;;6.80;;
73680;SDS011;61979;53.536;8.082;2022-08-03T05:26:04;13.20;;;6.70;;
73680;SDS011;61979;53.536;8.082;2022-08-03T05:27:05;11.30;;;6.60;;
73680;SDS011;61979;53.536;8.082;2022-08-03T05:28:05;11.93;;;6.63;;
73680;SDS011;61979;53.536;8.082;2022-08-03T05:29:05;11.77;;;7.03;;
73680;SDS011;61979;53.536;8.082;2022-08-03T05:30:06;11.63;;;6.57;;
73680;SDS011;61979;53.536;8.082;2022-08-03T05:31:07;13.77;;;6.95;;
73680;SDS011;61979;53.536;8.082;2022-08-03T05:32:08;13.48;;;6.63;;
73680;SDS011;61979;53.536;8.082;2022-08-03T05:33:08;15.48;;;6.25;;
73680;SDS011;61979;53.536;8.082;2022-08-03T05:34:08;9.45;;;5.82;;
73680;SDS011;61979;53.536;8.082;2022-08-03T05:35:09;15.73;;;7.72;;
73680;SDS011;61979;53.536;8.082;2022-08-03T05:36:09;23.40;;;13.73;;
73680;SDS011;61979;53.536;8.082;2022-08-03T05:37:10;15.45;;;10.05;;
73680;SDS011;61979;53.536;8.082;2022-08-03T05:38:10;39.38;;;25.08;;
73680;SDS011;61979;53.536;8.082;2022-08-03T05:39:10;11.32;;;6.55;;
73680;SDS011;61979;53.536;8.082;2022-08-03T05:40:11;11.50;;;5.95;;
73680;SDS011;61979;53.536;8.082;2022-08-03T05:41:12;8.55;;;5.53;;
73680;SDS011;61979;53.536;8.082;2022-08-03T05:42:14;8.10;;;5.15;;
73680;SDS011;61979;53.536;8.082;2022-08-03T05:43:14;10.60;;;5.28;;
73680;SDS011;61979;53.536;8.082;2022-08-03T05:44:15;9.77;;;5.18;;
73680;SDS011;61979;53.536;8.082;2022-08-03T05:45:16;13.75;;;5.13;;
73680;SDS011;61979;53.536;8.082;2022-08-03T05:46:17;9.43;;;4.93;;
73680;SDS011;61979;53.536;8.082;2022-08-03T05:47:18;6.70;;;4.78;;
73680;SDS011;61979;53.536;8.082;2022-08-03T05:48:18;11.05;;;4.97;;
73680;SDS011;61979;53.536;8.082;2022-08-03T05:49:19;14.20;;;4.63;;
73680;SDS011;61979;53.536;8.082;2022-08-03T05:50:19;11.77;;;4.50;;
73680;SDS011;61979;53.536;8.082;2022-08-03T05:51:20;7.95;;;4.78;;
73680;SDS011;61979;53.536;8.082;2022-08-03T05:52:21;9.57;;;4.72;;
73680;SDS011;61979;53.536;8.082;2022-08-03T05:53:21;12.25;;;4.82;;
73680;SDS011;61979;53.536;8.082;2022-08-03T05:54:21;10.63;;;4.53;;
73680;SDS011;61979;53.536;8.082;2022-08-03T05:55:22;9.23;;;4.90;;
73680;SDS011;61979;53.536;8.082;2022-08-03T05:56:22;11.70;;;5.10;;
73680;SDS011;61979;53.536;8.082;2022-08-03T05:57:24;7.70;;;4.55;;
73680;SDS011;61979;53.536;8.082;2022-08-03T05:58:25;8.80;;;4.25;;
73680;SDS011;61979;53.536;8.082;2022-08-03T05:59:25;8.85;;;4.28;;
73680;SDS011;61979;53.536;8.082;2022-08-03T06:00:25;9.90;;;4.47;;
73680;SDS011;61979;53.536;8.082;2022-08-03T06:01:26;15.30;;;4.15;;
73680;SDS011;61979;53.536;8.082;2022-08-03T06:02:26;13.80;;;4.85;;
73680;SDS011;61979;53.536;8.082;2022-08-03T06:03:26;8.40;;;4.15;;
73680;SDS011;61979;53.536;8.082;2022-08-03T06:04:27;8.48;;;4.00;;
73680;SDS011;61979;53.536;8.082;2022-08-03T06:05:27;11.95;;;4.60;;
73680;SDS011;61979;53.536;8.082;2022-08-03T06:06:28;9.77;;;4.35;;
73680;SDS011;61979;53.536;8.082;2022-08-03T06:07:28;10.68;;;4.10;;
73680;SDS011;61979;53.536;8.082;2022-08-03T06:08:29;7.53;;;4.03;;
73680;SDS011;61979;53.536;8.082;2022-08-03T06:09:30;7.22;;;4.20;;
73680;SDS011;61979;53.536;8.082;2022-08-03T06:10:31;13.43;;;4.40;;
73680;SDS011;61979;53.536;8.082;2022-08-03T06:11:32;9.68;;;3.70;;
73680;SDS011;61979;53.536;8.082;2022-08-03T06:12:32;8.20;;;4.15;;
73680;SDS011;61979;53.536;8.082;2022-08-03T06:13:35;9.15;;;4.20;;
73680;SDS011;61979;53.536;8.082;2022-08-03T06:14:36;9.27;;;4.45;;
73680;SDS011;61979;53.536;8.082;2022-08-03T06:15:36;8.40;;;3.65;;
73680;SDS011;61979;53.536;8.082;2022-08-03T06:16:37;9.98;;;4.40;;
73680;SDS011;61979;53.536;8.082;2022-08-03T06:17:46;11.23;;;4.20;;
73680;SDS011;61979;53.536;8.082;2022-08-03T06:18:48;9.13;;;4.50;;
73680;SDS011;61979;53.536;8.082;2022-08-03T06:19:50;10.43;;;4.30;;
73680;SDS011;61979;53.536;8.082;2022-08-03T06:20:51;9.88;;;4.00;;
73680;SDS011;61979;53.536;8.082;2022-08-03T06:21:52;10.48;;;4.38;;
73680;SDS011;61979;53.536;8.082;2022-08-03T06:22:52;9.15;;;4.38;;
73680;SDS011;61979;53.536;8.082;2022-08-03T06:23:53;12.55;;;4.50;;
73680;SDS011;61979;53.536;8.082;2022-08-03T06:24:53;9.80;;;3.92;;
73680;SDS011;61979;53.536;8.082;2022-08-03T06:25:53;8.23;;;3.90;;
73680;SDS011;61979;53.536;8.082;2022-08-03T06:26:54;14.20;;;3.83;;